createdAt,value
2022-11-18T00:27:39.134Z,5.00
2022-11-18T00:30:07.096Z,5.30
2022-11-18T00:32:34.142Z,5.40
2022-11-18T00:35:01.391Z,4.10
2022-11-18T00:37:29.053Z,6.00
2022-11-18T00:39:56.000Z,6.60
2022-11-18T00:42:42.106Z,4.90
2022-11-18T00:45:09.337Z,5.60
2022-11-18T00:53:42.711Z,4.10
2022-11-18T00:56:10.234Z,3.60
2022-11-18T00:58:37.891Z,4.60
2022-11-18T01:01:05.104Z,4.40
2022-11-18T01:03:32.982Z,4.30
2022-11-18T01:06:00.066Z,3.40
2022-11-18T01:08:27.086Z,6.00
2022-11-18T01:10:53.937Z,5.00
2022-11-18T01:13:22.542Z,4.00
2022-11-18T01:15:55.038Z,4.20
2022-11-18T01:18:25.324Z,5.80
2022-11-18T01:23:20.817Z,4.60
2022-11-18T01:25:48.858Z,3.50
2022-11-18T01:28:22.019Z,7.60
2022-11-18T01:30:50.864Z,6.30
2022-11-18T01:33:17.905Z,6.20
2022-11-18T01:35:45.108Z,4.80
2022-11-18T01:38:13.079Z,5.00
2022-11-18T01:40:40.374Z,5.10
2022-11-18T01:43:14.084Z,5.00
2022-11-18T01:45:42.093Z,5.70
2022-11-18T01:48:16.673Z,5.40
2022-11-18T01:50:46.236Z,8.40
2022-11-18T01:53:16.377Z,4.80
2022-11-18T01:55:46.346Z,5.70
2022-11-18T01:58:17.736Z,5.70
2022-11-18T02:00:44.534Z,6.10
2022-11-18T02:03:13.963Z,7.20
2022-11-18T10:59:47.419Z,14.70
2022-11-18T11:04:51.608Z,17.20
2022-11-18T11:07:35.133Z,36.40
2022-11-18T11:10:23.799Z,16.20
2022-11-18T11:13:06.400Z,13.40
2022-11-18T11:15:42.455Z,13.20
2022-11-18T11:18:31.739Z,19.30
2022-11-18T11:20:58.777Z,18.70
2022-11-18T11:23:25.733Z,13.50
2022-11-18T11:29:22.490Z,21.10
2022-11-18T11:32:03.573Z,16.00
2022-11-18T11:34:34.488Z,26.20
2022-11-18T11:37:16.210Z,28.70
2022-11-18T11:40:10.743Z,19.10
2022-11-18T11:43:16.704Z,23.00
2022-11-18T11:46:08.660Z,20.40
2022-11-18T11:48:48.100Z,31.70
2022-11-18T11:51:21.304Z,33.70
2022-11-18T11:54:00.997Z,20.30
2022-11-18T11:56:35.914Z,26.00
2022-11-18T11:59:19.777Z,21.40
2022-11-18T12:01:52.180Z,24.60
2022-11-18T12:04:47.228Z,17.80
2022-11-18T12:07:19.448Z,21.50
2022-11-18T12:09:51.818Z,19.40
2022-11-18T12:12:35.990Z,18.30
2022-11-18T12:15:37.826Z,18.30
2022-11-18T12:18:09.144Z,20.70
2022-11-18T12:20:41.408Z,22.10
2022-11-18T12:23:12.687Z,28.60
2022-11-18T12:25:48.670Z,19.90
2022-11-18T12:31:16.670Z,32.30
2022-11-18T12:36:28.433Z,22.00
2022-11-18T12:38:56.012Z,22.70
2022-11-18T12:42:00.021Z,23.00
2022-11-18T12:44:27.976Z,18.80
2022-11-18T12:46:56.428Z,20.10
2022-11-18T12:49:25.324Z,18.30
2022-11-18T12:51:56.362Z,23.10
2022-11-18T12:54:39.098Z,22.30
2022-11-18T12:57:24.048Z,21.40
2022-11-18T12:59:51.013Z,22.40
2022-11-18T13:02:28.436Z,16.50
2022-11-18T13:05:04.748Z,14.30
2022-11-18T13:07:52.498Z,14.90
2022-11-18T13:10:22.776Z,21.10
2022-11-18T13:12:49.871Z,18.60
2022-11-18T13:15:37.269Z,20.20
2022-11-18T13:18:22.453Z,15.30
2022-11-18T13:20:57.908Z,14.50
2022-11-18T13:23:49.096Z,18.60
2022-11-18T13:26:26.577Z,26.70
2022-11-18T13:29:22.451Z,25.60
2022-11-18T13:32:20.705Z,25.30
2022-11-18T13:34:58.487Z,27.50
2022-11-18T13:44:59.079Z,16.90
2022-11-18T13:50:07.515Z,18.10
2022-11-18T13:52:45.483Z,20.90
2022-11-18T13:55:22.698Z,19.50
2022-11-18T13:57:51.601Z,30.00
2022-11-18T14:00:24.175Z,25.60
2022-11-18T14:02:55.783Z,21.50
2022-11-18T14:05:22.489Z,24.40
2022-11-18T14:07:57.076Z,24.20
2022-11-18T14:10:39.334Z,18.80
2022-11-18T14:13:19.491Z,20.20
2022-11-18T14:15:47.482Z,19.10
2022-11-18T14:18:36.637Z,26.10
2022-11-18T14:21:05.032Z,25.80
2022-11-18T14:23:33.748Z,27.10
2022-11-18T14:26:02.311Z,39.90
2022-11-18T14:28:33.854Z,24.20
2022-11-18T14:31:11.233Z,22.00
2022-11-18T14:33:38.693Z,28.80
2022-11-18T14:36:15.735Z,35.00
2022-11-18T14:41:49.132Z,27.70
2022-11-18T14:44:17.397Z,26.50
2022-11-18T14:46:49.969Z,30.60
2022-11-18T14:49:18.768Z,30.10
2022-11-18T14:51:46.261Z,27.00
2022-11-18T14:54:22.316Z,31.30
2022-11-18T14:57:03.017Z,29.80
2022-11-18T14:59:29.929Z,27.10
2022-11-18T15:01:58.632Z,23.20
2022-11-18T15:04:26.425Z,22.50
2022-11-18T15:06:53.613Z,24.30
2022-11-18T15:09:20.948Z,23.50
2022-11-18T15:11:51.443Z,20.60
2022-11-18T15:14:18.805Z,25.70
2022-11-18T15:16:46.342Z,29.10
2022-11-18T15:21:45.550Z,30.70
2022-11-18T15:24:12.513Z,33.70
2022-11-18T15:26:41.607Z,30.40
2022-11-18T15:31:41.458Z,26.40
2022-11-18T15:34:08.897Z,35.60
2022-11-18T15:36:36.441Z,44.40
2022-11-18T15:39:03.548Z,61.90
2022-11-18T15:41:31.173Z,46.60
2022-11-18T15:43:59.585Z,33.40
2022-11-18T15:46:27.646Z,30.80
2022-11-18T15:48:55.839Z,28.80
2022-11-18T15:51:23.777Z,27.80
2022-11-18T15:53:50.761Z,23.90
2022-11-18T15:56:20.692Z,27.70
2022-11-18T15:58:57.152Z,24.60
2022-11-18T16:01:26.296Z,18.40
2022-11-18T16:03:53.446Z,21.70
2022-11-18T16:06:25.775Z,20.00
2022-11-18T16:08:58.969Z,23.10
2022-11-18T16:11:45.486Z,21.40
2022-11-18T16:14:13.678Z,22.10
2022-11-18T16:16:41.508Z,17.00
2022-11-18T16:19:23.822Z,22.90
2022-11-18T16:21:54.025Z,23.60
2022-11-18T16:24:28.828Z,21.10
2022-11-18T16:26:56.179Z,24.10
2022-11-18T16:29:24.050Z,24.50
2022-11-18T16:31:53.254Z,36.40
2022-11-18T16:34:25.566Z,37.20
2022-11-18T16:36:54.739Z,30.20
2022-11-18T16:39:26.303Z,26.00
2022-11-18T16:42:06.771Z,23.30
2022-11-18T16:44:35.010Z,21.50
2022-11-18T16:47:02.565Z,21.40
2022-11-18T16:49:30.155Z,18.40
2022-11-18T16:57:59.144Z,21.40
2022-11-18T17:00:51.359Z,26.50
2022-11-18T17:03:13.151Z,23.90
2022-11-18T17:05:40.370Z,22.50
2022-11-18T17:08:07.334Z,47.80
2022-11-18T17:10:35.205Z,53.70
2022-11-18T17:13:04.655Z,33.50
2022-11-18T17:15:31.422Z,26.00
2022-11-18T17:17:58.422Z,25.80
2022-11-18T17:20:25.630Z,26.90
2022-11-18T17:22:53.508Z,29.40
2022-11-18T17:25:21.143Z,32.60
2022-11-18T17:27:49.093Z,25.40
2022-11-18T17:30:16.187Z,20.00
2022-11-18T17:32:45.481Z,19.60
2022-11-18T17:35:12.730Z,19.30
2022-11-18T17:37:40.703Z,18.70
2022-11-18T17:40:08.641Z,27.40
2022-11-18T17:42:36.364Z,26.80
2022-11-18T17:45:03.994Z,25.10
2022-11-18T17:47:32.543Z,23.90
2022-11-18T17:49:59.765Z,24.20
2022-11-18T22:15:35.130Z,12.50
2022-11-18T22:18:02.271Z,15.40
2022-11-18T22:20:29.665Z,13.20
2022-11-18T22:22:56.844Z,13.50
2022-11-18T22:25:24.677Z,10.80
2022-11-18T22:27:51.614Z,8.40
2022-11-18T22:30:18.601Z,7.70
2022-11-18T22:32:45.694Z,11.20
2022-11-18T22:35:12.594Z,13.10
2022-11-18T22:37:40.073Z,10.60
2022-11-18T22:40:07.983Z,9.40
2022-11-18T22:42:47.518Z,11.70
2022-11-18T22:45:15.895Z,10.40
2022-11-18T22:47:43.237Z,12.70
2022-11-18T22:50:10.806Z,14.30
2022-11-18T22:52:37.964Z,12.60
2022-11-18T22:55:05.283Z,9.60
2022-11-18T22:57:35.569Z,10.00
2022-11-18T23:00:04.122Z,9.60
2022-11-18T23:02:31.363Z,10.00
2022-11-18T23:04:58.512Z,14.20
2022-11-18T23:07:25.537Z,13.00
2022-11-18T23:09:52.577Z,12.70
2022-11-18T23:12:41.382Z,12.00
2022-11-18T23:15:12.161Z,9.00
2022-11-18T23:17:39.037Z,12.40
2022-11-18T23:20:07.033Z,12.20
2022-11-18T23:22:34.404Z,11.10
2022-11-18T23:25:01.598Z,10.30
2022-11-18T23:27:29.377Z,13.90
2022-11-18T23:29:56.218Z,12.80
2022-11-18T23:32:23.028Z,10.80
2022-11-18T23:34:52.430Z,8.90
2022-11-18T23:37:19.569Z,9.40
2022-11-18T23:39:46.806Z,10.10
2022-11-18T23:42:13.730Z,12.70
2022-11-18T23:44:50.204Z,9.90
2022-11-18T23:47:17.453Z,11.60
2022-11-18T23:49:45.233Z,10.20
2022-11-18T23:52:12.950Z,10.80
2022-11-18T23:54:40.601Z,8.50
2022-11-18T23:57:07.841Z,11.60
2022-11-18T23:59:35.209Z,8.70
